createdAt,value
2018-02-16T00:00:23.209Z,95874
2018-02-16T00:02:52.225Z,95889
2018-02-16T00:05:21.307Z,95888
2018-02-16T00:07:50.295Z,95896
2018-02-16T00:10:19.350Z,95884
2018-02-16T00:12:49.134Z,95895
2018-02-16T00:15:18.188Z,95895
2018-02-16T00:17:47.207Z,95901
2018-02-16T00:20:16.259Z,95906
2018-02-16T00:22:45.287Z,95901
2018-02-16T00:25:14.372Z,95912
2018-02-16T00:27:43.398Z,95915
2018-02-16T00:30:12.409Z,95922
2018-02-16T00:32:42.238Z,95921
2018-02-16T00:35:11.323Z,95909
2018-02-16T00:37:41.107Z,95919
2018-02-16T00:40:10.126Z,95918
2018-02-16T00:42:39.954Z,95933
2018-02-16T00:45:08.986Z,95939
2018-02-16T00:47:38.055Z,95940
2018-02-16T00:50:07.075Z,95929
2018-02-16T00:52:36.170Z,95933
2018-02-16T00:55:05.237Z,95948
2018-02-16T00:57:34.281Z,95953
2018-02-16T01:00:03.304Z,95948
2018-02-16T01:02:33.123Z,95951
2018-02-16T01:05:02.187Z,95961
2018-02-16T01:07:32.035Z,95948
2018-02-16T01:10:01.050Z,95954
2018-02-16T01:12:30.103Z,95963
2018-02-16T01:14:59.944Z,95962
2018-02-16T01:17:28.975Z,95956
2018-02-16T01:19:58.022Z,95955
2018-02-16T01:22:27.051Z,95936
2018-02-16T01:24:56.279Z,95944
2018-02-16T01:27:25.297Z,95948
2018-02-16T01:29:55.079Z,95953
2018-02-16T01:32:24.128Z,95951
2018-02-16T01:34:53.186Z,95943
2018-02-16T01:37:22.969Z,95953
2018-02-16T01:39:52.007Z,95953
2018-02-16T01:42:21.773Z,95955
2018-02-16T01:44:50.835Z,95958
2018-02-16T01:47:19.850Z,95953
2018-02-16T01:50:06.701Z,95944
2018-02-16T01:52:36.472Z,95936
2018-02-16T01:55:05.469Z,95936
2018-02-16T01:57:34.510Z,95948
2018-02-16T02:00:04.323Z,95944
2018-02-16T02:02:34.086Z,95950
2018-02-16T02:05:03.138Z,95955
2018-02-16T02:07:32.155Z,95962
2018-02-16T02:10:01.215Z,95966
2018-02-16T02:12:30.233Z,95974
2018-02-16T02:14:59.275Z,95975
2018-02-16T02:17:28.308Z,95982
2018-02-16T02:19:57.305Z,95988
2018-02-16T02:22:26.354Z,95995
2018-02-16T02:24:56.162Z,95996
2018-02-16T02:27:25.204Z,96003
2018-02-16T02:29:54.220Z,96004
2018-02-16T02:32:23.253Z,96001
2018-02-16T02:34:52.421Z,96008
2018-02-16T02:37:21.443Z,96015
2018-02-16T02:39:50.448Z,96010
2018-02-16T02:42:20.271Z,96012
2018-02-16T02:44:50.042Z,96014
2018-02-16T02:47:19.059Z,96018
2018-02-16T02:49:48.145Z,96014
2018-02-16T02:52:17.166Z,96023
2018-02-16T02:54:46.938Z,96025
2018-02-16T02:57:15.974Z,96035
2018-02-16T02:59:45.038Z,96042
2018-02-16T03:02:14.059Z,96039
2018-02-16T03:04:43.831Z,96040
2018-02-16T03:07:12.878Z,96047
2018-02-16T03:09:41.907Z,96049
2018-02-16T03:12:10.950Z,96042
2018-02-16T03:14:40.736Z,96042
2018-02-16T03:17:09.787Z,96041
2018-02-16T03:19:38.806Z,96048
2018-02-16T03:22:07.867Z,96053
2018-02-16T03:24:36.896Z,96050
2018-02-16T03:27:05.967Z,96047
2018-02-16T03:29:35.009Z,96045
2018-02-16T03:32:04.801Z,96050
2018-02-16T03:34:33.832Z,96049
2018-02-16T03:37:02.913Z,96047
2018-02-16T03:39:32.706Z,96057
2018-02-16T03:42:01.752Z,96063
2018-02-16T03:44:30.818Z,96081
2018-02-16T03:47:00.619Z,96080
2018-02-16T03:49:29.652Z,96093
2018-02-16T03:51:58.708Z,96088
2018-02-16T03:54:28.957Z,96097
2018-02-16T03:56:57.989Z,96094
2018-02-16T03:59:27.056Z,96097
2018-02-16T04:01:56.080Z,96096
2018-02-16T04:04:25.138Z,96103
2018-02-16T04:06:54.194Z,96114
2018-02-16T04:09:23.241Z,96104
2018-02-16T04:11:52.292Z,96105
2018-02-16T04:14:21.306Z,96109
2018-02-16T04:16:50.353Z,96116
2018-02-16T04:19:19.370Z,96130
2018-02-16T04:21:48.414Z,96137
2018-02-16T04:24:17.433Z,96138
2018-02-16T04:26:46.487Z,96138
2018-02-16T04:29:15.506Z,96131
2018-02-16T04:31:44.522Z,96133
2018-02-16T04:34:13.578Z,96146
2018-02-16T04:36:42.621Z,96151
2018-02-16T04:39:11.635Z,96146
2018-02-16T04:41:41.463Z,96136
2018-02-16T04:44:10.487Z,96145
2018-02-16T04:46:39.506Z,96166
2018-02-16T04:49:08.556Z,96167
2018-02-16T04:51:37.586Z,96183
2018-02-16T04:54:06.648Z,96180
2018-02-16T04:56:35.685Z,96183
2018-02-16T04:59:04.703Z,96174
2018-02-16T05:01:34.515Z,96173
2018-02-16T05:04:04.297Z,96170
2018-02-16T05:06:33.331Z,96173
2018-02-16T05:09:02.345Z,96176
2018-02-16T05:11:31.421Z,96187
2018-02-16T05:14:00.434Z,96185
2018-02-16T05:16:29.442Z,96183
2018-02-16T05:18:58.534Z,96182
2018-02-16T05:21:27.558Z,96189
2018-02-16T05:23:56.569Z,96191
2018-02-16T05:26:26.407Z,96196
2018-02-16T05:28:55.421Z,96202
2018-02-16T05:31:24.443Z,96197
2018-02-16T05:33:53.515Z,96210
2018-02-16T05:36:22.530Z,96211
2018-02-16T05:38:51.579Z,96214
2018-02-16T05:41:20.613Z,96211
2018-02-16T05:43:49.682Z,96216
2018-02-16T05:46:18.719Z,96214
2018-02-16T05:48:47.717Z,96242
2018-02-16T05:51:17.559Z,96240
2018-02-16T05:53:46.586Z,96248
2018-02-16T05:56:15.601Z,96244
2018-02-16T05:58:44.659Z,96247
2018-02-16T06:01:13.720Z,96248
2018-02-16T06:03:43.494Z,96263
2018-02-16T06:06:12.574Z,96263
2018-02-16T06:08:41.636Z,96269
2018-02-16T06:11:10.645Z,96266
2018-02-16T06:13:39.698Z,96268
2018-02-16T06:16:09.490Z,96264
2018-02-16T06:18:38.538Z,96266
2018-02-16T06:21:07.559Z,96276
2018-02-16T06:23:36.610Z,96268
2018-02-16T06:26:05.627Z,96279
2018-02-16T06:28:34.696Z,96287
2018-02-16T06:31:03.759Z,96295
2018-02-16T06:33:32.778Z,96306
2018-02-16T06:36:01.799Z,96300
2018-02-16T06:38:30.841Z,96306
2018-02-16T06:41:00.635Z,96309
2018-02-16T06:43:29.703Z,96314
2018-02-16T06:45:58.706Z,96308
2018-02-16T06:48:27.717Z,96305
2018-02-16T06:50:56.786Z,96312
2018-02-16T06:53:25.795Z,96321
2018-02-16T06:55:54.815Z,96319
2018-02-16T06:58:23.875Z,96326
2018-02-16T07:00:53.697Z,96314
2018-02-16T07:03:22.740Z,96326
2018-02-16T07:05:52.490Z,96329
2018-02-16T07:08:21.537Z,96340
2018-02-16T07:10:50.553Z,96343
2018-02-16T07:13:19.614Z,96341
2018-02-16T07:15:49.386Z,96352
2018-02-16T07:18:18.444Z,96363
2018-02-16T07:20:47.442Z,96353
2018-02-16T07:23:16.486Z,96352
2018-02-16T07:25:45.498Z,96351
2018-02-16T07:28:15.305Z,96364
2018-02-16T07:30:45.083Z,96371
2018-02-16T07:33:14.143Z,96381
2018-02-16T07:35:43.160Z,96377
2018-02-16T07:38:12.198Z,96378
2018-02-16T07:40:41.969Z,96378
2018-02-16T07:43:11.026Z,96367
2018-02-16T07:45:40.057Z,96373
2018-02-16T07:48:09.070Z,96380
2018-02-16T07:50:38.117Z,96384
2018-02-16T07:53:07.139Z,96389
2018-02-16T07:55:36.182Z,96385
2018-02-16T07:58:05.972Z,96392
2018-02-16T08:00:35.022Z,96392
2018-02-16T08:03:04.047Z,96397
2018-02-16T08:05:33.319Z,96389
2018-02-16T08:08:02.330Z,96387
2018-02-16T08:10:31.342Z,96384
2018-02-16T08:13:00.419Z,96395
2018-02-16T08:15:29.463Z,96404
2018-02-16T08:17:58.478Z,96400
2018-02-16T08:20:27.551Z,96406
2018-02-16T08:22:56.572Z,96411
2018-02-16T08:25:25.599Z,96409
2018-02-16T08:27:54.665Z,96410
2018-02-16T08:30:23.678Z,96419
2018-02-16T08:32:52.701Z,96423
2018-02-16T08:35:22.531Z,96425
2018-02-16T08:37:51.546Z,96430
2018-02-16T08:40:20.600Z,96431
2018-02-16T08:42:50.374Z,96345
2018-02-16T08:45:19.427Z,96444
2018-02-16T08:47:48.454Z,96449
2018-02-16T08:50:17.547Z,96446
2018-02-16T08:52:46.561Z,96460
2018-02-16T08:55:15.591Z,96460
2018-02-16T08:57:44.656Z,96452
2018-02-16T09:00:13.683Z,96131
2018-02-16T09:02:42.733Z,96460
2018-02-16T09:05:11.755Z,96468
2018-02-16T09:07:41.566Z,96460
2018-02-16T09:10:11.366Z,96465
2018-02-16T09:12:40.439Z,96461
2018-02-16T09:15:09.464Z,96475
2018-02-16T09:17:39.247Z,96477
2018-02-16T09:20:08.312Z,96473
2018-02-16T09:22:37.325Z,96474
2018-02-16T09:25:06.347Z,96494
2018-02-16T09:27:35.393Z,96483
2018-02-16T09:30:04.446Z,96489
2018-02-16T09:32:34.239Z,96493
2018-02-16T09:35:03.510Z,96489
2018-02-16T09:37:32.532Z,96499
2018-02-16T09:40:01.575Z,96492
2018-02-16T09:42:30.600Z,96500
2018-02-16T09:44:59.620Z,96497
2018-02-16T09:47:28.789Z,96493
2018-02-16T09:49:57.853Z,96507
2018-02-16T09:52:27.601Z,96500
2018-02-16T09:55:04.020Z,96504
2018-02-16T09:57:33.069Z,96521
2018-02-16T10:00:02.136Z,96514
2018-02-16T10:02:31.163Z,96513
2018-02-16T10:05:00.224Z,96516
2018-02-16T10:07:29.282Z,96531
2018-02-16T10:09:58.305Z,96532
2018-02-16T10:12:27.379Z,96526
2018-02-16T10:14:56.406Z,96451
2018-02-16T10:17:25.486Z,96532
2018-02-16T10:19:54.513Z,96521
2018-02-16T10:22:23.538Z,96517
2018-02-16T10:24:53.362Z,96519
2018-02-16T10:27:23.142Z,96517
2018-02-16T10:29:52.195Z,96518
2018-02-16T10:32:21.227Z,96510
2018-02-16T10:34:50.288Z,96524
2018-02-16T10:37:19.307Z,96514
2018-02-16T10:39:48.362Z,96509
2018-02-16T10:42:17.386Z,96508
2018-02-16T10:44:46.551Z,96512
2018-02-16T10:47:15.585Z,96513
2018-02-16T10:49:44.630Z,96522
2018-02-16T10:52:14.433Z,96524
2018-02-16T10:54:43.495Z,96525
2018-02-16T10:57:12.519Z,96531
2018-02-16T10:59:42.332Z,96534
2018-02-16T11:02:16.984Z,96527
2018-02-16T11:04:51.489Z,96528
2018-02-16T11:07:26.139Z,96545
2018-02-16T11:09:55.239Z,96549
2018-02-16T11:12:24.255Z,96542
2018-02-16T11:14:53.287Z,96550
2018-02-16T11:17:22.342Z,96553
2018-02-16T11:19:51.364Z,96553
2018-02-16T11:22:20.395Z,96547
2018-02-16T11:24:49.458Z,96548
2018-02-16T11:27:18.499Z,96538
2018-02-16T11:29:47.514Z,96536
2018-02-16T11:32:16.584Z,96534
2018-02-16T11:34:45.650Z,96536
2018-02-16T11:37:14.706Z,96540
2018-02-16T11:39:43.727Z,96536
2018-02-16T11:42:12.800Z,96545
2018-02-16T11:44:42.591Z,96550
2018-02-16T11:47:11.611Z,96551
2018-02-16T11:49:40.714Z,96553
2018-02-16T11:52:10.500Z,96559
2018-02-16T11:54:39.522Z,96559
2018-02-16T11:57:08.586Z,96541
2018-02-16T11:59:37.610Z,96557
2018-02-16T12:02:06.671Z,96548
2018-02-16T12:04:35.716Z,96556
2018-02-16T12:07:04.795Z,96559
2018-02-16T12:09:33.806Z,96569
2018-02-16T12:12:02.830Z,96570
2018-02-16T12:14:31.906Z,96567
2018-02-16T12:17:00.913Z,96563
2018-02-16T12:19:29.964Z,96567
2018-02-16T12:21:59.044Z,96572
2018-02-16T12:24:28.079Z,96563
2018-02-16T12:26:57.098Z,96565
2018-02-16T12:29:26.176Z,96567
2018-02-16T12:31:55.198Z,96558
2018-02-16T12:34:24.258Z,96561
2018-02-16T12:36:53.288Z,96565
2018-02-16T12:39:23.122Z,96553
2018-02-16T12:41:52.921Z,96549
2018-02-16T12:44:22.860Z,96474
2018-02-16T12:46:51.891Z,96546
2018-02-16T12:49:20.926Z,96533
2018-02-16T12:51:50.744Z,96530
2018-02-16T12:54:20.576Z,96527
2018-02-16T12:56:49.602Z,96528
2018-02-16T12:59:18.647Z,96522
2018-02-16T13:01:48.439Z,96518
2018-02-16T13:04:17.506Z,96527
2018-02-16T13:06:46.634Z,96519
2018-02-16T13:09:16.502Z,96520
2018-02-16T13:11:45.518Z,96515
2018-02-16T13:14:14.531Z,96521
2018-02-16T13:16:43.615Z,96520
2018-02-16T13:19:12.636Z,96518
2018-02-16T13:21:42.427Z,96526
2018-02-16T13:24:12.274Z,96528
2018-02-16T13:26:41.300Z,96533
2018-02-16T13:29:10.326Z,96531
2018-02-16T13:31:39.369Z,96537
2018-02-16T13:34:08.385Z,96541
2018-02-16T13:36:37.429Z,96546
2018-02-16T13:39:06.462Z,96539
2018-02-16T13:41:35.534Z,96543
2018-02-16T13:44:04.558Z,96543
2018-02-16T13:46:33.582Z,96530
2018-02-16T13:49:02.679Z,96522
2018-02-16T13:51:31.703Z,96528
2018-02-16T13:54:00.742Z,96532
2018-02-16T13:56:29.843Z,96533
2018-02-16T13:58:58.867Z,96531
2018-02-16T14:01:28.664Z,96541
2018-02-16T14:03:57.709Z,96533
2018-02-16T14:06:26.730Z,96529
2018-02-16T14:08:55.797Z,96525
2018-02-16T14:11:24.835Z,96516
2018-02-16T14:13:53.909Z,96516
2018-02-16T14:16:22.936Z,96518
2018-02-16T14:18:51.984Z,96524
2018-02-16T14:21:21.010Z,96524
2018-02-16T14:23:50.066Z,96521
2018-02-16T14:26:19.085Z,96524
2018-02-16T14:28:48.105Z,96527
2018-02-16T14:31:17.203Z,96535
2018-02-16T14:33:46.235Z,96525
2018-02-16T14:36:15.246Z,96529
2018-02-16T14:38:44.305Z,96533
2018-02-16T14:41:13.314Z,96532
2018-02-16T14:43:42.398Z,96533
2018-02-16T14:46:11.432Z,96544
2018-02-16T14:48:40.462Z,96540
2018-02-16T14:51:10.361Z,96541
2018-02-16T14:53:39.382Z,96542
2018-02-16T14:56:09.194Z,96540
2018-02-16T14:58:38.224Z,96541
2018-02-16T15:01:07.284Z,96538
2018-02-16T15:03:37.069Z,96530
2018-02-16T15:06:06.137Z,96525
2018-02-16T15:08:35.156Z,96524
2018-02-16T15:11:04.207Z,96536
2018-02-16T15:13:33.285Z,96544
2018-02-16T15:16:02.294Z,96554
2018-02-16T15:18:31.388Z,96555
2018-02-16T15:21:00.412Z,96549
2018-02-16T15:23:29.447Z,96551
2018-02-16T15:25:58.497Z,96549
2018-02-16T15:28:27.514Z,96549
2018-02-16T15:30:57.335Z,96556
2018-02-16T15:33:27.145Z,96552
2018-02-16T15:35:56.969Z,96545
2018-02-16T15:38:26.042Z,96558
2018-02-16T15:40:55.058Z,96553
2018-02-16T15:43:24.155Z,96548
2018-02-16T15:45:53.208Z,96556
2018-02-16T15:48:22.225Z,96544
2018-02-16T15:50:52.075Z,96550
2018-02-16T15:53:21.093Z,96560
2018-02-16T15:55:50.110Z,96550
2018-02-16T15:58:19.176Z,96553
2018-02-16T16:00:48.193Z,96554
2018-02-16T16:03:17.255Z,96540
2018-02-16T16:05:46.281Z,96552
2018-02-16T16:08:15.368Z,96551
2018-02-16T16:10:44.382Z,96558
2018-02-16T16:13:14.154Z,96561
2018-02-16T16:15:43.293Z,96575
2018-02-16T16:18:13.073Z,96570
2018-02-16T16:20:42.089Z,96575
2018-02-16T16:23:12.015Z,96573
2018-02-16T16:25:41.038Z,96577
2018-02-16T16:28:10.058Z,96578
2018-02-16T16:30:39.115Z,96581
2018-02-16T16:33:08.183Z,96579
2018-02-16T16:35:38.011Z,96588
2018-02-16T16:38:07.206Z,96585
2018-02-16T16:40:36.986Z,96588
2018-02-16T16:43:05.992Z,96604
2018-02-16T16:45:35.075Z,96608
2018-02-16T16:48:04.089Z,96606
2018-02-16T16:50:33.873Z,96596
2018-02-16T16:53:02.953Z,96594
2018-02-16T16:55:32.010Z,96595
2018-02-16T16:58:01.058Z,96597
2018-02-16T17:00:30.182Z,96590
2018-02-16T17:02:59.219Z,96592
2018-02-16T17:05:28.289Z,96599
2018-02-16T17:07:57.372Z,96598
2018-02-16T17:10:27.166Z,96594
2018-02-16T17:12:56.218Z,96602
2018-02-16T17:15:25.238Z,96594
2018-02-16T17:17:54.303Z,96598
2018-02-16T17:20:23.316Z,96598
2018-02-16T17:22:52.371Z,96608
2018-02-16T17:25:21.393Z,96603
2018-02-16T17:27:50.415Z,96600
2018-02-16T17:30:19.454Z,96615
2018-02-16T17:32:48.531Z,96614
2018-02-16T17:35:17.538Z,96624
2018-02-16T17:37:46.623Z,96628
2018-02-16T17:40:15.635Z,96632
2018-02-16T17:42:44.671Z,96627
2018-02-16T17:45:13.755Z,96623
2018-02-16T17:47:42.787Z,96625
2018-02-16T17:50:12.619Z,96638
2018-02-16T17:52:41.697Z,96630
2018-02-16T17:55:11.510Z,96626
2018-02-16T17:57:41.312Z,96635
2018-02-16T18:00:11.141Z,96626
2018-02-16T18:02:40.924Z,96620
2018-02-16T18:05:10.756Z,96547
2018-02-16T18:07:40.536Z,96617
2018-02-16T18:10:09.592Z,96622
2018-02-16T18:12:38.631Z,96626
2018-02-16T18:15:07.703Z,96627
2018-02-16T18:17:36.722Z,96618
2018-02-16T18:20:05.752Z,96623
2018-02-16T18:22:34.801Z,96633
2018-02-16T18:25:03.841Z,96620
2018-02-16T18:27:32.903Z,96623
2018-02-16T18:30:02.716Z,96613
2018-02-16T18:32:32.575Z,96622
2018-02-16T18:35:01.614Z,96613
2018-02-16T18:37:30.667Z,96606
2018-02-16T18:39:59.688Z,96614
2018-02-16T18:42:28.753Z,96619
2018-02-16T18:44:57.768Z,96613
2018-02-16T18:47:26.820Z,96617
2018-02-16T18:49:55.919Z,96602
2018-02-16T18:52:24.939Z,96600
2018-02-16T18:54:53.948Z,96598
2018-02-16T18:57:23.005Z,96586
2018-02-16T18:59:52.897Z,96500
2018-02-16T19:02:22.716Z,96596
2018-02-16T19:04:51.731Z,96588
2018-02-16T19:07:20.771Z,96591
2018-02-16T19:09:49.782Z,96584
2018-02-16T19:12:19.602Z,96576
2018-02-16T19:14:49.384Z,96580
2018-02-16T19:17:18.426Z,96563
2018-02-16T19:19:47.470Z,96568
2018-02-16T19:22:16.519Z,96560
2018-02-16T19:24:45.778Z,96561
2018-02-16T19:27:14.878Z,96553
2018-02-16T19:29:43.903Z,96554
2018-02-16T19:32:12.947Z,96564
2018-02-16T19:34:41.975Z,96564
2018-02-16T19:37:12.225Z,96565
2018-02-16T19:39:41.324Z,96562
2018-02-16T19:42:10.499Z,96556
2018-02-16T19:44:39.607Z,96560
2018-02-16T19:47:08.642Z,96560
2018-02-16T19:49:37.668Z,96560
2018-02-16T19:52:06.726Z,96564
2018-02-16T19:54:35.787Z,96560
2018-02-16T19:57:05.173Z,96549
2018-02-16T19:59:34.289Z,96549
2018-02-16T20:02:03.371Z,96542
2018-02-16T20:04:35.082Z,96551
2018-02-16T20:07:04.352Z,96549
2018-02-16T20:09:34.201Z,96545
2018-02-16T20:12:04.021Z,96553
2018-02-16T20:14:33.827Z,96559
2018-02-16T20:17:03.648Z,96553
2018-02-16T20:19:33.435Z,96552
2018-02-16T20:22:02.508Z,96549
2018-02-16T20:24:31.864Z,96543
2018-02-16T20:27:01.014Z,96543
2018-02-16T20:29:30.099Z,96540
2018-02-16T20:31:59.484Z,96530
2018-02-16T20:34:29.636Z,96529
2018-02-16T20:36:59.639Z,96536
2018-02-16T20:39:28.692Z,96525
2018-02-16T20:41:57.735Z,96521
2018-02-16T20:44:26.818Z,96512
2018-02-16T20:46:55.915Z,96515
2018-02-16T20:49:24.938Z,96522
2018-02-16T20:51:54.003Z,96511
2018-02-16T20:54:23.055Z,96509
2018-02-16T20:56:52.075Z,96508
2018-02-16T20:59:21.180Z,96513
2018-02-16T21:01:50.208Z,96509
2018-02-16T21:04:19.275Z,96503
2018-02-16T21:06:48.303Z,96504
2018-02-16T21:09:18.123Z,96501
2018-02-16T21:11:47.906Z,96510
2018-02-16T21:14:16.981Z,96503
2018-02-16T21:16:46.036Z,96503
2018-02-16T21:19:15.046Z,96492
2018-02-16T21:21:44.148Z,96499
2018-02-16T21:24:13.158Z,96509
2018-02-16T21:26:42.177Z,96515
2018-02-16T21:29:11.226Z,96521
2018-02-16T21:31:40.296Z,96517
2018-02-16T21:34:10.083Z,96522
2018-02-16T21:36:39.170Z,96517
2018-02-16T21:39:08.193Z,96522
2018-02-16T21:41:38.018Z,96513
2018-02-16T21:44:07.047Z,96517
2018-02-16T21:46:36.218Z,96522
2018-02-16T21:49:05.240Z,96517
2018-02-16T21:51:34.252Z,96517
2018-02-16T21:54:03.306Z,96522
2018-02-16T21:56:32.360Z,96527
2018-02-16T21:59:01.380Z,96533
2018-02-16T22:01:30.446Z,96531
2018-02-16T22:04:00.237Z,96528
2018-02-16T22:06:29.299Z,96531
2018-02-16T22:08:58.332Z,96517
2018-02-16T22:11:27.349Z,96529
2018-02-16T22:13:56.402Z,96522
2018-02-16T22:16:25.419Z,96518
2018-02-16T22:18:54.480Z,96528
2018-02-16T22:21:23.498Z,96519
2018-02-16T22:23:52.575Z,96525
2018-02-16T22:26:21.608Z,96530
2018-02-16T22:28:51.399Z,96536
2018-02-16T22:31:20.468Z,96526
2018-02-16T22:33:49.490Z,96523
2018-02-16T22:36:18.539Z,96520
2018-02-16T22:38:47.567Z,96518
2018-02-16T22:41:16.625Z,96517
2018-02-16T22:43:45.655Z,96502
2018-02-16T22:46:14.670Z,96510
2018-02-16T22:48:44.504Z,96517
2018-02-16T22:51:13.527Z,96508
2018-02-16T22:53:42.550Z,96505
2018-02-16T22:56:11.615Z,96508
2018-02-16T22:58:40.642Z,96510
2018-02-16T23:01:09.706Z,96514
2018-02-16T23:03:38.751Z,96520
2018-02-16T23:06:07.833Z,96515
2018-02-16T23:08:36.855Z,96510
2018-02-16T23:11:05.923Z,96509
2018-02-16T23:13:35.748Z,96502
2018-02-16T23:16:05.538Z,96502
2018-02-16T23:18:34.591Z,96498
2018-02-16T23:21:03.617Z,96504
2018-02-16T23:23:32.680Z,96503
2018-02-16T23:26:01.735Z,96495
2018-02-16T23:28:30.758Z,96497
2018-02-16T23:30:59.830Z,96503
2018-02-16T23:33:28.862Z,96489
2018-02-16T23:35:57.883Z,96489
2018-02-16T23:38:26.942Z,96485
2018-02-16T23:40:55.966Z,96475
2018-02-16T23:43:24.987Z,96485
2018-02-16T23:45:54.007Z,96471
2018-02-16T23:48:23.033Z,96466
2018-02-16T23:50:52.107Z,96460
2018-02-16T23:53:21.127Z,96450
2018-02-16T23:55:50.156Z,96457
2018-02-16T23:58:19.214Z,96452
